Terminal Aerodrome Forecast
Issued by NWS

Home | Current Version | Previous Version | Text Only | Print | Product List | Glossary On
Versions: 1 2 3 4 5 6 7 8 9 10 11 12 13 14 15 16 17 18 19 20 21 22 23
000
FTUS43 KSGF 241400 AAA
TAFJLN
TAF AMD
KJLN 241418Z 2414/2512 23010KT P6SM SKC
     FM241600 27017G27KT P6SM SCT035
     FM242300 28005KT P6SM SKC=

USA.gov is the U.S. government's official web portal to all federal, state and local government web resources and services.